KPWA/PWA METAR and TAF weather

Enter ICAO airport designator
Station Type Date Time Source
KPWA METAR 2022/01/18 05:53 UTC NOAA

KPWA 180553Z AUTO 18012KT 10SM CLR 08/M03 A2993 RMK AO2 SLP132 T00831033 10117 20061 401611044 58014


Station Type Date Time Source
KPWA Decoded METAR 2022/01/18 05:53 UTC NOAA

WILEY POST, OK, United States (KPWA) 35-32N 97-39W 397M
Jan 18, 2022 - 12:53 AM EST / 2022.01.18 0553 UTC
Wind: from the S (180 degrees) at 14 MPH (12 KT):0
Visibility: 10 mile(s):0
Sky conditions: clear
Temperature: 46.9 F (8.3 C)
Dew Point: 26.1 F (-3.3 C)
Relative Humidity: 43%
Pressure (altimeter): 29.93 in. Hg (1013 hPa)
Pressure tendency: 0.04 inches (1.4 hPa) lower than three hours ago
ob: KPWA 180553Z AUTO 18012KT 10SM CLR 08/M03 A2993 RMK AO2 SLP132 T00831033 10117 20061 401611044 58014
cycle: 6

Station Type Date Time Source
KPWA TAF UTC NOAA

Error!

Example: see airport list